Time;durP1;ratioP1;P1;durP2;ratioP2;P2;SDS_P1;SDS_P2;PMS_P1;PMS_P2;Temp;Humidity;BMP_temperature;BMP_pressure;BME280_temperature;BME280_humidity;BME280_pressure;Samples;Min_cycle;Max_cycle;Signal;HPM_P1;HPM_P2
2024/01/16 00:00:47;;;;;;;7.90;4.05;;;;;;;2.40;78.13;97499.03;4239399;27;20229;-82
2024/01/16 00:02:49;;;;;;;7.50;3.58;;;;;;;2.42;78.23;97500.63;4239501;27;20208;-82
2024/01/16 00:04:52;;;;;;;7.57;4.25;;;;;;;2.44;77.80;97503.13;4252865;27;20211;-82
2024/01/16 00:06:56;;;;;;;7.70;4.28;;;;;;;2.45;78.45;97508.19;4223203;27;20228;-82
2024/01/16 00:09:00;;;;;;;7.90;5.07;;;;;;;2.41;77.71;97501.53;4256471;27;20199;-83
2024/01/16 00:11:03;;;;;;;6.80;4.85;;;;;;;2.46;77.75;97509.84;4239737;27;20199;-83
2024/01/16 00:13:06;;;;;;;6.50;4.40;;;;;;;2.47;77.55;97516.69;4227432;27;20211;-82
2024/01/16 00:15:10;;;;;;;5.47;4.03;;;;;;;2.47;77.41;97511.53;4235006;27;20201;-82
2024/01/16 00:17:13;;;;;;;6.93;4.28;;;;;;;2.48;78.01;97507.22;4255900;27;20290;-82
2024/01/16 00:19:18;;;;;;;5.55;4.22;;;;;;;2.49;77.78;97507.13;4224168;27;20227;-82
2024/01/16 00:21:21;;;;;;;5.65;4.68;;;;;;;2.51;77.35;97513.06;4224256;28;20220;-82
2024/01/16 00:23:24;;;;;;;7.85;4.20;;;;;;;2.52;77.49;97507.00;4239042;27;20207;-82
2024/01/16 00:25:29;;;;;;;8.77;5.43;;;;;;;2.52;77.52;97504.44;4256732;27;20225;-82
2024/01/16 00:27:32;;;;;;;8.27;5.00;;;;;;;2.53;77.20;97511.25;4237820;27;20284;-83
2024/01/16 00:29:35;;;;;;;8.13;4.75;;;;;;;2.51;76.82;97507.94;4238852;27;20220;-82
2024/01/16 00:31:38;;;;;;;9.05;4.97;;;;;;;2.47;77.34;97506.38;4223544;27;20435;-81
2024/01/16 00:33:42;;;;;;;6.57;4.45;;;;;;;2.49;77.45;97508.88;4238269;27;20235;-81
2024/01/16 00:35:45;;;;;;;11.15;5.63;;;;;;;2.48;77.54;97507.22;4240431;27;20615;-82
2024/01/16 00:37:49;;;;;;;8.98;4.10;;;;;;;2.47;77.39;97506.38;4234137;27;20851;-82
2024/01/16 00:39:52;;;;;;;8.32;4.80;;;;;;;2.41;77.03;97498.94;4237235;27;21152;-82
2024/01/16 00:41:56;;;;;;;7.45;3.95;;;;;;;2.44;77.64;97510.84;4221314;27;20218;-83
2024/01/16 00:43:59;;;;;;;6.85;4.30;;;;;;;2.48;77.78;97513.22;4235280;27;20227;-82
2024/01/16 00:46:02;;;;;;;6.13;4.30;;;;;;;2.50;77.64;97506.25;4221983;27;20248;-82
2024/01/16 00:48:05;;;;;;;5.85;4.60;;;;;;;2.55;77.63;97511.19;4240499;27;20207;-82
2024/01/16 00:50:10;;;;;;;7.03;4.13;;;;;;;2.54;77.07;97510.34;4252365;27;20243;-82
2024/01/16 00:52:13;;;;;;;7.00;4.55;;;;;;;2.56;77.15;97515.44;4255134;27;20208;-82
2024/01/16 00:54:16;;;;;;;7.28;4.63;;;;;;;2.56;77.14;97505.13;4254926;27;20298;-82
2024/01/16 00:56:19;;;;;;;6.60;3.83;;;;;;;2.56;76.69;97505.97;4218030;27;20202;-82
2024/01/16 00:58:24;;;;;;;6.90;3.80;;;;;;;2.54;76.48;97507.78;4236599;27;20223;-82
2024/01/16 01:00:29;;;;;;;8.15;3.67;;;;;;;2.55;76.70;97514.56;4231428;27;20227;-82
2024/01/16 01:02:33;;;;;;;5.15;3.90;;;;;;;2.54;77.35;97505.22;4226407;27;20200;-82
2024/01/16 01:04:35;;;;;;;7.70;4.80;;;;;;;2.56;77.30;97518.00;4256979;27;20229;-82
2024/01/16 01:06:39;;;;;;;4.90;3.70;;;;;;;2.57;77.32;97507.63;4219449;27;20200;-83
2024/01/16 01:08:42;;;;;;;8.60;4.10;;;;;;;2.55;76.71;97514.56;4216011;28;20287;-82
2024/01/16 01:10:45;;;;;;;4.95;3.78;;;;;;;2.54;76.69;97512.94;4217669;27;20208;-82
2024/01/16 01:12:49;;;;;;;6.07;3.70;;;;;;;2.58;76.64;97518.75;4237675;27;20253;-82
2024/01/16 01:14:53;;;;;;;6.68;3.72;;;;;;;2.58;76.70;97526.47;4256089;27;20283;-82
2024/01/16 01:16:57;;;;;;;7.30;4.20;;;;;;;2.59;76.20;97528.97;4237323;27;20295;-82
2024/01/16 01:19:00;;;;;;;10.27;4.20;;;;;;;2.58;76.67;97527.31;4235984;27;20233;-82
2024/01/16 01:21:03;;;;;;;6.80;4.30;;;;;;;2.55;76.36;97522.28;4238141;27;20228;-82
2024/01/16 01:23:06;;;;;;;6.38;4.25;;;;;;;2.58;77.06;97527.31;4254015;27;20196;-82
2024/01/16 01:25:10;;;;;;;5.18;3.50;;;;;;;2.60;76.62;97525.50;4239310;27;20188;-83
2024/01/16 01:27:13;;;;;;;7.50;4.35;;;;;;;2.60;76.59;97532.38;4236417;27;20210;-82
2024/01/16 01:29:17;;;;;;;4.55;3.50;;;;;;;2.59;76.86;97534.13;4254074;27;20218;-82
2024/01/16 01:31:21;;;;;;;6.88;3.85;;;;;;;2.54;76.65;97541.22;4217459;27;20223;-83
2024/01/16 01:33:25;;;;;;;7.20;4.20;;;;;;;2.58;77.05;97544.50;4222425;27;20636;-82
2024/01/16 01:35:28;;;;;;;5.97;3.80;;;;;;;2.60;77.13;97548.66;4226150;27;20204;-83
2024/01/16 01:37:31;;;;;;;5.97;3.75;;;;;;;2.62;76.96;97541.69;4219911;28;20246;-82
2024/01/16 01:39:34;;;;;;;9.00;3.75;;;;;;;2.62;76.54;97540.88;4230657;27;20207;-83
2024/01/16 01:41:38;;;;;;;10.27;4.80;;;;;;;2.63;76.03;97545.97;4239337;27;20282;-82
2024/01/16 01:43:41;;;;;;;9.75;4.53;;;;;;;2.60;76.03;97537.53;4234550;27;20203;-83
2024/01/16 01:45:45;;;;;;;11.07;4.88;;;;;;;2.60;76.23;97542.66;4233032;27;20685;-83
2024/01/16 01:47:50;;;;;;;9.65;5.20;;;;;;;2.60;76.82;97540.94;4236223;27;20676;-83
2024/01/16 01:49:53;;;;;;;8.80;5.13;;;;;;;2.63;76.38;97545.09;4235947;27;20203;-83
2024/01/16 01:51:56;;;;;;;9.25;4.13;;;;;;;2.64;76.53;97541.63;4237859;27;20228;-83
2024/01/16 01:54:01;;;;;;;7.60;4.50;;;;;;;2.60;76.98;97543.53;4252632;27;20206;-82
2024/01/16 01:56:06;;;;;;;8.23;4.43;;;;;;;2.59;76.67;97546.16;4255275;27;20303;-82
2024/01/16 01:58:10;;;;;;;7.70;4.22;;;;;;;2.58;76.63;97552.22;4240664;27;20206;-83
2024/01/16 02:00:17;;;;;;;8.00;4.10;;;;;;;2.56;76.25;97554.03;4219986;27;20211;-83
2024/01/16 02:02:21;;;;;;;4.28;3.13;;;;;;;2.56;76.54;97554.03;4224997;27;20252;-83
2024/01/16 02:04:27;;;;;;;6.53;3.50;;;;;;;2.57;76.22;97556.53;4237341;27;20211;-83
2024/01/16 02:06:30;;;;;;;6.78;3.65;;;;;;;2.58;76.14;97558.19;4252545;27;20205;-82
2024/01/16 02:08:34;;;;;;;4.75;3.70;;;;;;;2.59;76.16;97554.72;4219197;27;20290;-82
2024/01/16 02:10:38;;;;;;;4.80;3.50;;;;;;;2.57;76.34;97551.38;4232530;27;20259;-83
2024/01/16 02:12:41;;;;;;;7.25;3.80;;;;;;;2.59;76.41;97561.59;4252339;27;20206;-83
2024/01/16 02:14:45;;;;;;;7.40;4.65;;;;;;;2.60;76.56;97561.53;4219221;28;20596;-82
2024/01/16 02:16:48;;;;;;;6.55;4.05;;;;;;;2.55;76.05;97554.91;4253896;27;20660;-82
2024/01/16 02:18:53;;;;;;;5.97;3.75;;;;;;;2.48;76.30;97561.22;4238001;27;20245;-82
2024/01/16 02:21:00;;;;;;;6.03;4.28;;;;;;;2.48;76.57;97561.22;4249330;27;20250;-82
2024/01/16 02:23:05;;;;;;;5.88;4.15;;;;;;;2.48;76.91;97564.66;4214301;28;20294;-83
2024/01/16 02:25:10;;;;;;;4.82;3.80;;;;;;;2.45;76.75;97559.66;4236031;27;20199;-82
2024/01/16 02:27:13;;;;;;;6.50;3.83;;;;;;;2.48;77.31;97563.81;4253359;27;20245;-82
2024/01/16 02:29:16;;;;;;;5.38;4.25;;;;;;;2.49;77.12;97562.91;4221863;28;20218;-82
2024/01/16 02:31:19;;;;;;;5.72;3.90;;;;;;;2.51;77.32;97564.53;4221509;28;20192;-83
2024/01/16 02:33:23;;;;;;;6.38;4.22;;;;;;;2.50;76.94;97567.16;4217949;28;20735;-82
2024/01/16 02:35:26;;;;;;;6.35;4.20;;;;;;;2.49;76.81;97568.06;4220686;28;20399;-82
2024/01/16 02:37:29;;;;;;;7.75;4.18;;;;;;;2.51;77.05;97567.09;4220058;28;20291;-83
2024/01/16 02:39:33;;;;;;;6.03;3.72;;;;;;;2.48;76.79;97567.22;4233294;27;20195;-82
2024/01/16 02:41:42;;;;;;;5.63;3.97;;;;;;;2.47;77.18;97559.59;4233627;27;20238;-82
2024/01/16 02:43:48;;;;;;;6.75;3.80;;;;;;;2.47;76.93;97559.59;4232267;27;20207;-86
2024/01/16 02:45:51;;;;;;;6.50;3.80;;;;;;;2.46;76.57;97566.44;4221135;28;20203;-85
2024/01/16 02:47:55;;;;;;;8.85;4.22;;;;;;;2.44;76.91;97564.88;4254456;27;20227;-85
2024/01/16 02:49:58;;;;;;;7.32;4.32;;;;;;;2.43;76.69;97560.63;4226087;28;20204;-85
2024/01/16 02:52:02;;;;;;;7.00;4.32;;;;;;;2.42;76.98;97564.94;4234292;27;20207;-85
2024/01/16 02:54:07;;;;;;;6.70;4.13;;;;;;;2.39;76.96;97559.94;4235273;27;20263;-86
2024/01/16 02:56:09;;;;;;;6.55;4.18;;;;;;;2.37;76.64;97564.28;4235627;27;20211;-85
2024/01/16 02:58:14;;;;;;;7.28;4.00;;;;;;;2.33;77.44;97548.22;4222581;27;20731;-86
2024/01/16 03:00:18;;;;;;;6.43;4.00;;;;;;;2.24;77.05;97554.66;4256688;27;20288;-85
2024/01/16 03:02:22;;;;;;;8.25;4.15;;;;;;;2.24;77.39;97558.94;4221712;27;20228;-85
2024/01/16 03:04:26;;;;;;;6.47;3.50;;;;;;;2.20;77.38;97562.56;4246169;27;20262;-86
2024/01/16 03:06:29;;;;;;;6.03;3.95;;;;;;;2.21;77.64;97559.06;4240216;27;20291;-86
2024/01/16 03:08:33;;;;;;;7.20;4.07;;;;;;;2.20;77.77;97565.13;4224334;27;20225;-85
2024/01/16 03:10:35;;;;;;;7.35;4.20;;;;;;;2.20;77.78;97567.69;4225042;28;20793;-86
2024/01/16 03:12:38;;;;;;;5.57;3.97;;;;;;;2.22;77.31;97565.88;4228569;27;20196;-85
2024/01/16 03:14:42;;;;;;;8.07;4.15;;;;;;;2.21;77.40;97566.78;4235523;27;20251;-86
2024/01/16 03:16:46;;;;;;;6.25;3.50;;;;;;;2.22;77.38;97560.75;4233824;27;20299;-85
2024/01/16 03:18:49;;;;;;;4.85;3.80;;;;;;;2.24;77.37;97569.22;4237163;27;20261;-85
2024/01/16 03:20:52;;;;;;;7.22;4.15;;;;;;;2.21;77.31;97565.06;4251992;27;20656;-85
2024/01/16 03:22:56;;;;;;;7.30;4.40;;;;;;;2.21;77.50;97567.63;4258339;27;20622;-85
2024/01/16 03:24:59;;;;;;;6.60;4.30;;;;;;;2.17;77.47;97562.69;4236781;27;20262;-85
2024/01/16 03:27:05;;;;;;;7.75;4.18;;;;;;;2.15;77.56;97559.34;4241338;27;20205;-85
2024/01/16 03:29:08;;;;;;;7.20;4.05;;;;;;;2.14;77.89;97565.41;4253356;27;20199;-86
2024/01/16 03:31:13;;;;;;;6.93;4.53;;;;;;;2.10;77.46;97558.72;4237752;27;20203;-85
2024/01/16 03:33:16;;;;;;;7.78;4.40;;;;;;;2.11;77.50;97560.41;4245329;27;20207;-86
2024/01/16 03:35:20;;;;;;;4.80;3.33;;;;;;;2.08;77.44;97553.63;4241268;27;20693;-85
2024/01/16 03:37:22;;;;;;;7.25;4.60;;;;;;;2.07;77.53;97556.28;4233074;27;20782;-85
2024/01/16 03:39:28;;;;;;;7.22;4.20;;;;;;;2.06;77.34;97554.59;4257330;27;20202;-85
2024/01/16 03:41:34;;;;;;;5.43;4.15;;;;;;;2.09;77.47;97564.75;4256127;27;20726;-85
2024/01/16 03:43:37;;;;;;;9.98;4.28;;;;;;;2.07;77.22;97558.84;4254317;27;20199;-85
2024/01/16 03:45:40;;;;;;;6.90;4.35;;;;;;;2.05;76.97;97547.81;4236276;27;20630;-85
2024/01/16 03:47:45;;;;;;;5.88;4.10;;;;;;;2.02;77.01;97555.66;4220577;27;20209;-85
2024/01/16 03:49:48;;;;;;;6.82;4.00;;;;;;;1.98;77.10;97559.25;4252128;27;20199;-86
2024/01/16 03:51:51;;;;;;;6.05;4.15;;;;;;;1.97;77.15;97565.28;4221353;27;20203;-83
2024/01/16 03:53:54;;;;;;;6.80;4.30;;;;;;;1.98;77.61;97557.50;4228152;27;20209;-82
2024/01/16 03:55:57;;;;;;;7.40;4.25;;;;;;;1.95;77.60;97567.91;4235770;27;20214;-83
2024/01/16 03:58:00;;;;;;;7.03;4.88;;;;;;;1.90;78.01;97558.75;4224618;27;20694;-82
2024/01/16 04:00:05;;;;;;;5.95;4.13;;;;;;;1.84;77.92;97559.00;4218861;27;20213;-82
2024/01/16 04:02:08;;;;;;;7.30;4.97;;;;;;;1.77;78.49;97555.03;4220219;28;20233;-83
2024/01/16 04:04:11;;;;;;;8.55;4.50;;;;;;;1.61;77.73;97551.44;4238674;27;20294;-83
2024/01/16 04:06:16;;;;;;;6.28;4.43;;;;;;;1.59;77.44;97552.41;4256739;27;20571;-82
2024/01/16 04:08:19;;;;;;;5.63;3.80;;;;;;;1.56;78.40;97562.81;4238777;27;20200;-82
2024/01/16 04:10:22;;;;;;;6.25;3.97;;;;;;;1.54;78.20;97560.28;4242777;27;20221;-82
2024/01/16 04:12:26;;;;;;;8.52;4.20;;;;;;;1.54;78.21;97556.91;4256546;27;20299;-82
2024/01/16 04:14:29;;;;;;;9.32;4.20;;;;;;;1.58;78.48;97558.44;4233840;27;20204;-82
2024/01/16 04:16:32;;;;;;;7.43;4.78;;;;;;;1.60;79.03;97561.78;4236215;27;20214;-82
2024/01/16 04:18:37;;;;;;;7.50;4.60;;;;;;;1.63;78.83;97559.91;4249240;27;21155;-83
2024/01/16 04:20:42;;;;;;;8.57;4.80;;;;;;;1.65;79.20;97560.69;4237133;27;20715;-82
2024/01/16 04:22:46;;;;;;;8.63;4.60;;;;;;;1.70;79.41;97555.34;4252956;27;20219;-82
2024/01/16 04:24:51;;;;;;;5.43;3.83;;;;;;;1.69;79.21;97549.38;4244149;27;20882;-83
2024/01/16 04:26:54;;;;;;;6.75;4.35;;;;;;;1.62;79.36;97554.84;4234959;27;20223;-82
2024/01/16 04:28:58;;;;;;;5.35;3.95;;;;;;;1.56;78.92;97557.66;4222466;27;20224;-83
2024/01/16 04:31:01;;;;;;;7.70;4.88;;;;;;;1.49;78.61;97551.13;4235237;27;20291;-82
2024/01/16 04:33:05;;;;;;;6.43;4.53;;;;;;;1.43;78.74;97544.50;4244135;27;20207;-82
2024/01/16 04:35:08;;;;;;;7.40;4.80;;;;;;;1.44;78.40;97553.91;4233038;27;20245;-82
2024/01/16 04:37:13;;;;;;;7.30;5.22;;;;;;;1.42;78.87;97545.41;4244409;27;20228;-83
2024/01/16 04:39:17;;;;;;;7.57;4.80;;;;;;;1.39;78.45;97551.56;4226209;27;20242;-82
2024/01/16 04:41:20;;;;;;;7.90;5.20;;;;;;;1.40;78.41;97544.63;4240466;27;20200;-83
2024/01/16 04:43:23;;;;;;;7.38;4.65;;;;;;;1.40;78.72;97546.38;4255338;27;20280;-82
2024/01/16 04:45:26;;;;;;;14.00;4.88;;;;;;;1.38;78.07;97552.47;4220069;27;20208;-82
2024/01/16 04:47:29;;;;;;;9.43;5.07;;;;;;;1.32;78.55;97548.41;4255288;27;20218;-82
2024/01/16 04:49:31;;;;;;;6.80;4.25;;;;;;;1.30;77.92;97544.25;4241602;27;20249;-82
2024/01/16 04:51:34;;;;;;;7.75;4.53;;;;;;;1.31;78.10;97548.47;4225949;27;20682;-82
2024/01/16 04:53:40;;;;;;;6.15;4.70;;;;;;;1.29;78.75;97553.66;4237875;27;20196;-83
2024/01/16 04:55:43;;;;;;;6.57;4.43;;;;;;;1.30;78.13;97559.66;4221688;27;20224;-82
2024/01/16 04:57:47;;;;;;;8.43;4.80;;;;;;;1.28;78.76;97561.44;4258065;27;20695;-81
2024/01/16 04:59:50;;;;;;;10.20;4.80;;;;;;;1.22;78.67;97561.69;4238739;27;20195;-82
2024/01/16 05:01:52;;;;;;;6.75;4.53;;;;;;;1.17;78.18;97563.59;4241085;27;20269;-82
2024/01/16 05:03:56;;;;;;;7.63;4.28;;;;;;;1.09;78.65;97560.50;4238844;27;20202;-81
2024/01/16 05:05:59;;;;;;;8.48;4.07;;;;;;;1.05;77.73;97559.81;4236531;27;20250;-82
2024/01/16 05:08:02;;;;;;;7.68;5.22;;;;;;;0.97;77.72;97558.44;4238843;27;20254;-81
2024/01/16 05:10:10;;;;;;;6.18;4.78;;;;;;;0.91;77.50;97556.09;4236157;27;20253;-82
2024/01/16 05:12:13;;;;;;;11.25;4.45;;;;;;;0.89;77.24;97559.63;4237049;27;20248;-82
2024/01/16 05:14:16;;;;;;;7.13;4.32;;;;;;;0.93;78.12;97561.19;4251050;27;20312;-82
2024/01/16 05:16:20;;;;;;;10.23;4.70;;;;;;;0.96;78.21;97551.63;4242819;27;20637;-82
2024/01/16 05:18:23;;;;;;;9.63;4.88;;;;;;;0.99;78.74;97546.38;4232248;27;20204;-82
2024/01/16 05:20:27;;;;;;;7.47;4.60;;;;;;;0.96;78.27;97543.91;4235279;27;20350;-82
2024/01/16 05:22:29;;;;;;;12.55;5.25;;;;;;;0.87;77.74;97534.03;4250327;27;20782;-85
2024/01/16 05:24:32;;;;;;;7.03;4.43;;;;;;;0.78;77.57;97529.25;4240733;27;20219;-85
2024/01/16 05:26:37;;;;;;;11.15;5.15;;;;;;;0.63;77.30;97524.75;4233958;27;20765;-84
2024/01/16 05:28:40;;;;;;;7.93;5.00;;;;;;;0.55;77.46;97525.91;4242018;27;20203;-85
2024/01/16 05:30:43;;;;;;;6.78;4.05;;;;;;;0.50;77.97;97520.97;4233204;27;20302;-85
2024/01/16 05:32:46;;;;;;;8.20;5.47;;;;;;;0.43;77.87;97516.13;4253673;27;20700;-85
2024/01/16 05:34:50;;;;;;;8.15;4.45;;;;;;;0.43;78.69;97517.88;4219694;27;20719;-85
2024/01/16 05:36:53;;;;;;;7.75;4.75;;;;;;;0.37;79.31;97520.66;4240495;27;20203;-85
2024/01/16 05:38:56;;;;;;;6.82;5.10;;;;;;;0.35;78.89;97522.47;4240586;27;20202;-85
2024/01/16 05:40:59;;;;;;;8.30;5.13;;;;;;;0.39;78.89;97524.00;4254642;27;20241;-85
2024/01/16 05:43:04;;;;;;;7.45;4.70;;;;;;;0.41;78.20;97517.94;4253410;27;20716;-84
2024/01/16 05:45:09;;;;;;;10.70;4.80;;;;;;;0.43;78.48;97520.44;4238588;27;20203;-84
2024/01/16 05:47:12;;;;;;;8.23;5.47;;;;;;;0.43;78.76;97523.81;4242958;27;20199;-84
2024/01/16 05:49:15;;;;;;;6.93;5.40;;;;;;;0.42;78.88;97509.31;4222622;27;20253;-85
2024/01/16 05:51:19;;;;;;;7.70;5.07;;;;;;;0.35;78.88;97507.91;4252929;27;20207;-84
2024/01/16 05:53:22;;;;;;;8.15;5.22;;;;;;;0.30;79.52;97508.97;4251791;27;20237;-85
2024/01/16 05:55:24;;;;;;;8.07;5.18;;;;;;;0.23;79.24;97502.41;4220099;28;20222;-84
2024/01/16 05:57:27;;;;;;;7.75;4.85;;;;;;;0.15;78.81;97497.56;4253865;27;20207;-84
2024/01/16 05:59:32;;;;;;;11.45;5.88;;;;;;;0.10;79.03;97502.00;4239240;27;20598;-85
2024/01/16 06:01:37;;;;;;;11.35;6.13;;;;;;;0.01;79.70;97492.09;4256256;27;20254;-85
2024/01/16 06:03:41;;;;;;;13.15;7.13;;;;;;;-0.05;80.04;97506.03;4237954;27;20246;-85
2024/01/16 06:05:44;;;;;;;14.45;6.25;;;;;;;-0.10;80.53;97498.53;4225281;27;20196;-84
2024/01/16 06:07:48;;;;;;;10.60;6.80;;;;;;;-0.09;81.51;97496.78;4227310;27;20774;-84
2024/01/16 06:09:51;;;;;;;9.18;5.85;;;;;;;-0.03;81.76;97500.00;4248389;27;20263;-85
2024/01/16 06:11:54;;;;;;;12.30;8.18;;;;;;;0.04;81.98;97497.13;4234681;27;20208;-84
2024/01/16 06:13:57;;;;;;;11.95;8.25;;;;;;;0.00;81.74;97495.56;4253830;27;20253;-85
2024/01/16 06:16:03;;;;;;;16.83;8.35;;;;;;;-0.01;82.25;97492.25;4248868;27;20206;-84
2024/01/16 06:18:06;;;;;;;17.45;9.32;;;;;;;-0.04;81.96;97493.19;4220628;27;20207;-84
2024/01/16 06:20:11;;;;;;;11.05;7.10;;;;;;;-0.04;82.14;97489.78;4252267;27;20205;-84
2024/01/16 06:22:14;;;;;;;15.23;8.48;;;;;;;-0.03;82.38;97491.44;4237122;27;20255;-84
2024/01/16 06:24:17;;;;;;;10.23;6.53;;;;;;;-0.02;81.90;97496.50;4217262;28;20220;-85
2024/01/16 06:26:20;;;;;;;14.50;6.10;;;;;;;0.00;81.38;97489.63;4231984;27;20286;-84
2024/01/16 06:28:23;;;;;;;9.55;5.80;;;;;;;0.02;81.36;97485.28;4251514;27;20199;-84
2024/01/16 06:30:27;;;;;;;9.82;5.60;;;;;;;0.04;81.27;97486.03;4234614;27;20199;-84
2024/01/16 06:32:31;;;;;;;10.82;5.18;;;;;;;0.09;81.15;97481.56;4235889;27;20260;-84
2024/01/16 06:34:33;;;;;;;10.23;5.85;;;;;;;0.13;81.35;97488.25;4235392;27;20816;-84
2024/01/16 06:36:37;;;;;;;8.10;5.15;;;;;;;0.12;81.16;97482.31;4222120;28;20202;-84
2024/01/16 06:38:40;;;;;;;10.85;5.70;;;;;;;0.12;80.76;97484.88;4238069;27;20206;-84
2024/01/16 06:40:44;;;;;;;9.85;6.20;;;;;;;0.16;81.23;97491.53;4251363;27;20617;-85
2024/01/16 06:42:47;;;;;;;10.07;6.40;;;;;;;0.19;80.91;97488.84;4240623;27;20219;-85
2024/01/16 06:44:50;;;;;;;9.82;6.18;;;;;;;0.17;80.65;97484.69;4235863;27;20195;-84
2024/01/16 06:46:54;;;;;;;11.25;5.80;;;;;;;0.05;80.39;97488.53;4219445;28;20211;-84
2024/01/16 06:48:58;;;;;;;13.63;7.90;;;;;;;-0.02;80.88;97488.00;4235748;27;20257;-84
2024/01/16 06:51:01;;;;;;;25.73;11.00;;;;;;;-0.01;81.23;97487.13;4248924;27;20195;-84
2024/01/16 06:53:04;;;;;;;22.50;10.85;;;;;;;-0.02;81.07;97488.00;4240342;27;20206;-84
2024/01/16 06:55:07;;;;;;;38.80;15.60;;;;;;;0.03;81.16;97484.34;4252670;27;20901;-84
2024/01/16 06:57:10;;;;;;;36.22;15.15;;;;;;;0.04;81.90;97480.91;4235441;27;20211;-84
2024/01/16 06:59:14;;;;;;;29.95;14.30;;;;;;;0.09;81.27;97489.25;4235357;27;20230;-84
2024/01/16 07:01:17;;;;;;;19.55;9.68;;;;;;;0.13;80.95;97483.13;4238782;27;20307;-84
2024/01/16 07:03:21;;;;;;;18.08;9.68;;;;;;;0.16;81.16;97493.28;4255281;27;20655;-84
2024/01/16 07:05:25;;;;;;;17.52;9.20;;;;;;;0.17;81.58;97494.97;4238208;27;20210;-85
2024/01/16 07:07:28;;;;;;;7.88;5.20;;;;;;;0.16;81.44;97500.97;4224623;28;20208;-85
2024/01/16 07:09:31;;;;;;;10.30;5.63;;;;;;;0.17;81.15;97497.50;4249294;27;20225;-84
2024/01/16 07:11:35;;;;;;;7.03;4.80;;;;;;;0.20;81.45;97503.34;4234318;27;20203;-84
2024/01/16 07:13:38;;;;;;;9.77;6.20;;;;;;;0.22;81.39;97503.28;4251824;27;20286;-85
2024/01/16 07:15:41;;;;;;;7.93;4.85;;;;;;;0.28;81.48;97505.63;4234237;27;20199;-84
2024/01/16 07:17:43;;;;;;;8.55;5.75;;;;;;;0.28;81.03;97503.88;4227159;27;20677;-85
2024/01/16 07:19:46;;;;;;;9.80;5.30;;;;;;;0.25;80.58;97510.88;4231548;27;20196;-86
2024/01/16 07:21:51;;;;;;;8.73;4.90;;;;;;;0.26;80.61;97507.44;4240428;27;20595;-85
2024/01/16 07:23:54;;;;;;;9.60;5.70;;;;;;;0.28;80.61;97513.31;4252271;27;20257;-86
2024/01/16 07:25:57;;;;;;;10.23;5.97;;;;;;;0.28;80.60;97509.03;4220953;28;20204;-85
2024/01/16 07:28:00;;;;;;;8.20;5.68;;;;;;;0.31;80.96;97520.91;4242578;27;20231;-86
2024/01/16 07:30:06;;;;;;;7.75;4.40;;;;;;;0.28;80.41;97513.31;4235965;27;20252;-85
2024/01/16 07:32:10;;;;;;;9.50;5.65;;;;;;;0.28;80.64;97516.72;4236693;27;20259;-84
2024/01/16 07:34:19;;;;;;;11.60;6.60;;;;;;;0.30;80.40;97520.06;4222585;28;20203;-86
2024/01/16 07:36:22;;;;;;;12.45;6.78;;;;;;;0.30;80.44;97519.22;4254456;27;20256;-85
2024/01/16 07:38:27;;;;;;;11.23;6.78;;;;;;;0.30;80.42;97520.06;4247901;27;20303;-86
2024/01/16 07:40:30;;;;;;;13.43;7.07;;;;;;;0.32;80.17;97518.28;4221412;28;20197;-85
2024/01/16 07:42:34;;;;;;;11.90;6.47;;;;;;;0.31;80.04;97526.03;4253496;27;20217;-85
2024/01/16 07:44:38;;;;;;;12.80;8.25;;;;;;;0.30;80.35;97526.91;4222011;27;20228;-85
2024/01/16 07:46:41;;;;;;;21.25;14.30;;;;;;;0.29;79.96;97518.38;4238734;27;21096;-85
2024/01/16 07:48:44;;;;;;;15.55;9.65;;;;;;;0.30;80.03;97524.34;4239517;27;20719;-85
2024/01/16 07:50:46;;;;;;;13.15;8.48;;;;;;;0.28;79.84;97521.00;4256836;27;20886;-85
2024/01/16 07:52:50;;;;;;;13.95;8.60;;;;;;;0.27;80.10;97519.31;4223054;27;20208;-85
2024/01/16 07:54:54;;;;;;;15.55;10.88;;;;;;;0.26;79.57;97517.69;4235775;27;20230;-84
2024/01/16 07:56:57;;;;;;;13.95;9.10;;;;;;;0.23;79.87;97518.63;4234937;27;20290;-84
2024/01/16 07:59:01;;;;;;;11.32;8.40;;;;;;;0.26;79.61;97517.69;4242600;27;20208;-84
2024/01/16 08:01:04;;;;;;;15.27;8.20;;;;;;;0.22;79.96;97511.00;4256160;27;20260;-84
2024/01/16 08:03:10;;;;;;;12.00;7.22;;;;;;;0.20;79.97;97510.22;4254857;27;20228;-83
2024/01/16 08:05:14;;;;;;;12.63;6.97;;;;;;;0.24;79.75;97516.88;4255634;27;20279;-85
2024/01/16 08:07:17;;;;;;;9.55;6.35;;;;;;;0.26;80.05;97515.94;4235508;27;20208;-84
2024/01/16 08:09:20;;;;;;;13.00;7.20;;;;;;;0.33;80.06;97519.09;4237001;27;20257;-84
2024/01/16 08:11:25;;;;;;;10.95;7.05;;;;;;;0.35;79.85;97518.16;4237159;27;20217;-84
2024/01/16 08:13:28;;;;;;;15.18;6.72;;;;;;;0.40;79.77;97515.44;4254050;27;20949;-84
2024/01/16 08:15:31;;;;;;;13.25;6.30;;;;;;;0.43;78.91;97523.81;4237267;27;20337;-84
2024/01/16 08:17:34;;;;;;;13.18;6.80;;;;;;;0.49;78.93;97521.84;4235030;27;20214;-84
2024/01/16 08:19:38;;;;;;;14.40;7.22;;;;;;;0.54;78.69;97525.09;4234607;27;20204;-84
2024/01/16 08:21:41;;;;;;;12.40;7.07;;;;;;;0.58;79.31;97526.63;4235535;27;20270;-84
2024/01/16 08:23:44;;;;;;;14.30;6.88;;;;;;;0.62;78.59;97528.19;4240352;27;20294;-84
2024/01/16 08:25:47;;;;;;;9.52;6.18;;;;;;;0.62;77.90;97517.94;4234122;27;20264;-84
2024/01/16 08:27:52;;;;;;;15.50;7.43;;;;;;;0.67;78.10;97521.16;4234956;27;20200;-84
2024/01/16 08:29:55;;;;;;;13.00;7.30;;;;;;;0.73;78.40;97526.03;4236489;27;20326;-85
2024/01/16 08:31:59;;;;;;;16.10;7.13;;;;;;;0.78;78.03;97539.50;4239991;27;20226;-84
2024/01/16 08:34:03;;;;;;;10.93;6.53;;;;;;;0.82;78.04;97535.94;4257413;27;20269;-84
2024/01/16 08:36:06;;;;;;;12.88;6.75;;;;;;;0.87;78.08;97534.03;4236504;27;20318;-84
2024/01/16 08:38:10;;;;;;;13.10;6.30;;;;;;;0.95;77.95;97542.28;4231757;27;20203;-84
2024/01/16 08:40:13;;;;;;;13.10;7.20;;;;;;;1.04;77.95;97536.78;4234573;27;20700;-83
2024/01/16 08:42:17;;;;;;;9.40;5.85;;;;;;;1.14;78.07;97538.06;4237716;27;20248;-84
2024/01/16 08:44:22;;;;;;;14.27;7.50;;;;;;;1.24;77.51;97539.38;4233504;27;20203;-84
2024/01/16 08:46:25;;;;;;;12.52;7.50;;;;;;;1.29;77.62;97542.56;4238134;27;20203;-84
2024/01/16 08:48:27;;;;;;;22.23;11.50;;;;;;;1.36;78.19;97544.00;4239348;27;20225;-85
2024/01/16 08:50:30;;;;;;;9.25;6.10;;;;;;;1.41;77.97;97543.75;4251525;27;20886;-85
2024/01/16 08:52:33;;;;;;;11.90;5.78;;;;;;;1.44;77.46;97543.63;4236854;27;20244;-84
2024/01/16 08:54:37;;;;;;;7.10;4.60;;;;;;;1.49;76.85;97546.00;4253261;27;20199;-84
2024/01/16 08:56:40;;;;;;;9.70;5.10;;;;;;;1.56;76.10;97549.97;4232729;27;20661;-84
2024/01/16 08:58:42;;;;;;;9.55;6.85;;;;;;;1.63;77.15;97548.81;4232672;27;20222;-85
2024/01/16 09:00:48;;;;;;;12.02;7.05;;;;;;;1.68;77.18;97550.28;4236545;27;20283;-85
2024/01/16 09:02:51;;;;;;;9.93;5.57;;;;;;;1.74;77.71;97551.75;4237486;27;20217;-84
2024/01/16 09:04:54;;;;;;;12.90;7.95;;;;;;;1.78;77.24;97556.69;4238729;27;20239;-85
2024/01/16 09:06:58;;;;;;;20.95;10.00;;;;;;;1.83;77.43;97564.22;4236662;27;20705;-86
2024/01/16 09:09:02;;;;;;;14.10;8.98;;;;;;;1.87;77.27;97564.03;4222394;28;20901;-86
2024/01/16 09:11:05;;;;;;;12.38;8.13;;;;;;;1.91;77.77;97566.41;4234837;27;20203;-84
2024/01/16 09:13:07;;;;;;;14.48;8.20;;;;;;;1.98;77.61;97570.34;4240231;27;20207;-85
2024/01/16 09:15:11;;;;;;;18.23;10.82;;;;;;;2.04;77.15;97579.53;4237054;27;20550;-84
2024/01/16 09:17:16;;;;;;;19.13;12.43;;;;;;;2.08;76.61;97566.50;4237531;27;20550;-85
2024/01/16 09:19:18;;;;;;;21.30;13.65;;;;;;;2.11;76.64;97574.06;4252191;27;20202;-84
2024/01/16 09:21:21;;;;;;;18.88;10.73;;;;;;;2.14;76.78;97573.94;4229101;27;20274;-87
2024/01/16 09:23:24;;;;;;;25.08;14.10;;;;;;;2.15;76.44;97577.34;4219307;27;20218;-86
2024/01/16 09:25:29;;;;;;;15.15;9.13;;;;;;;2.17;76.45;97573.81;4249222;27;20226;-84
2024/01/16 09:27:32;;;;;;;14.00;8.70;;;;;;;2.18;76.40;97577.19;4252063;27;20206;-87
2024/01/16 09:29:35;;;;;;;16.58;10.00;;;;;;;2.13;76.08;97571.44;4230878;27;20749;-85
2024/01/16 09:31:39;;;;;;;16.25;10.23;;;;;;;2.15;75.99;97577.34;4216350;27;20604;-88
2024/01/16 09:33:44;;;;;;;21.65;10.63;;;;;;;2.16;76.58;97576.44;4239078;27;20290;-86
2024/01/16 09:35:47;;;;;;;19.52;11.00;;;;;;;2.18;76.22;97590.91;4236031;27;20233;-84
2024/01/16 09:37:51;;;;;;;19.23;11.98;;;;;;;2.20;76.26;97589.09;4234127;27;20199;-83
2024/01/16 09:39:54;;;;;;;20.80;12.00;;;;;;;2.29;76.33;97585.31;4253247;27;20316;-87
2024/01/16 09:42:00;;;;;;;19.67;12.23;;;;;;;2.33;76.36;97591.06;4230785;27;20524;-86
2024/01/16 09:44:04;;;;;;;25.10;12.57;;;;;;;2.39;76.27;97593.38;4254089;27;20785;-85
2024/01/16 09:46:07;;;;;;;29.35;20.40;;;;;;;2.51;75.73;97586.81;4245875;27;20235;-85